createdAt,value
2018-12-26T00:00:25.213Z,11.73
2018-12-26T00:02:53.083Z,12.10
2018-12-26T00:05:20.668Z,12.80
2018-12-26T00:07:48.425Z,12.47
2018-12-26T00:10:16.231Z,12.43
2018-12-26T00:12:44.037Z,12.57
2018-12-26T00:15:12.319Z,12.27
2018-12-26T00:17:40.305Z,12.70
2018-12-26T00:20:07.980Z,12.87
2018-12-26T00:22:35.646Z,12.17
2018-12-26T00:25:06.547Z,12.17
2018-12-26T00:27:34.200Z,12.47
2018-12-26T00:30:02.116Z,12.47
2018-12-26T00:32:30.123Z,12.03
2018-12-26T00:35:04.184Z,12.67
2018-12-26T00:37:33.882Z,12.30
2018-12-26T00:40:01.613Z,11.80
2018-12-26T00:42:29.116Z,12.30
2018-12-26T00:44:56.855Z,12.33
2018-12-26T00:47:25.718Z,12.67
2018-12-26T00:49:54.535Z,13.07
2018-12-26T00:52:24.581Z,12.07
2018-12-26T00:54:52.250Z,12.90
2018-12-26T00:57:29.161Z,13.77
2018-12-26T00:59:59.992Z,13.10
2018-12-26T01:02:33.223Z,13.37
2018-12-26T01:05:04.598Z,12.87
2018-12-26T01:07:32.326Z,13.03
2018-12-26T01:10:04.267Z,13.20
2018-12-26T01:12:33.832Z,13.57
2018-12-26T01:15:03.027Z,14.20
2018-12-26T01:17:30.907Z,13.27
2018-12-26T01:19:58.502Z,13.87
2018-12-26T01:22:26.167Z,13.40
2018-12-26T01:24:54.125Z,13.73
2018-12-26T01:27:21.775Z,13.97
2018-12-26T01:29:50.630Z,13.73
2018-12-26T01:32:25.006Z,13.70
2018-12-26T01:34:53.910Z,13.47
2018-12-26T01:37:24.210Z,13.53
2018-12-26T01:39:51.907Z,13.93
2018-12-26T01:42:20.493Z,14.53
2018-12-26T01:44:49.379Z,13.80
2018-12-26T01:47:17.391Z,14.43
2018-12-26T01:49:46.212Z,13.70
2018-12-26T01:52:15.179Z,14.90
2018-12-26T01:54:42.793Z,13.90
2018-12-26T01:57:10.418Z,15.17
2018-12-26T01:59:40.780Z,14.87
2018-12-26T02:02:08.681Z,14.73
2018-12-26T02:04:36.374Z,15.78
2018-12-26T02:07:05.719Z,15.55
2018-12-26T02:09:33.366Z,16.48
2018-12-26T02:12:01.203Z,15.88
2018-12-26T02:14:28.846Z,14.90
2018-12-26T02:16:56.812Z,14.93
2018-12-26T02:19:24.668Z,15.87
2018-12-26T02:21:52.286Z,14.60
2018-12-26T02:24:20.245Z,15.10
2018-12-26T02:26:48.111Z,15.25
2018-12-26T02:29:15.987Z,14.58
2018-12-26T02:31:43.842Z,14.87
2018-12-26T02:34:11.504Z,15.20
2018-12-26T02:36:47.269Z,15.57
2018-12-26T02:39:17.497Z,16.27
2018-12-26T02:41:45.459Z,15.72
2018-12-26T02:44:13.178Z,15.20
2018-12-26T02:46:40.861Z,15.57
2018-12-26T02:49:08.453Z,16.30
2018-12-26T02:51:36.420Z,15.87
2018-12-26T02:54:04.227Z,15.75
2018-12-26T02:56:47.763Z,16.83
2018-12-26T02:59:11.971Z,16.00
2018-12-26T03:01:39.684Z,15.80
2018-12-26T03:04:07.345Z,15.38
2018-12-26T03:06:35.162Z,17.25
2018-12-26T03:09:04.751Z,16.70
2018-12-26T03:11:32.366Z,16.23
2018-12-26T03:14:03.396Z,15.73
2018-12-26T03:16:31.038Z,17.48
2018-12-26T03:18:58.691Z,16.32
2018-12-26T03:21:26.476Z,16.90
2018-12-26T03:23:55.132Z,17.25
2018-12-26T03:26:22.749Z,15.80
2018-12-26T03:28:50.413Z,16.97
2018-12-26T03:31:18.008Z,16.73
2018-12-26T03:33:45.794Z,17.67
2018-12-26T03:36:14.765Z,16.77
2018-12-26T03:38:42.398Z,16.30
2018-12-26T03:41:10.014Z,17.20
2018-12-26T03:43:37.961Z,17.32
2018-12-26T03:46:06.984Z,17.50
2018-12-26T03:48:35.634Z,16.87
2018-12-26T03:51:03.530Z,16.67
2018-12-26T03:53:31.135Z,16.70
2018-12-26T03:55:58.768Z,15.93
2018-12-26T03:58:26.797Z,16.82
2018-12-26T04:00:54.379Z,16.97
2018-12-26T04:03:22.148Z,17.42
2018-12-26T04:05:51.933Z,17.87
2018-12-26T04:08:19.846Z,16.37
2018-12-26T04:10:47.876Z,16.15
2018-12-26T04:13:15.932Z,17.12
2018-12-26T04:15:44.951Z,17.82
2018-12-26T04:18:12.644Z,16.45
2018-12-26T04:20:41.410Z,16.93
2018-12-26T04:23:09.088Z,17.07
2018-12-26T04:25:41.546Z,18.30
2018-12-26T04:28:09.193Z,17.27
2018-12-26T04:30:36.888Z,17.35
2018-12-26T04:33:04.661Z,18.07
2018-12-26T04:35:32.574Z,17.80
2018-12-26T04:38:00.254Z,18.27
2018-12-26T04:40:27.845Z,18.55
2018-12-26T04:42:55.673Z,18.42
2018-12-26T04:45:23.314Z,18.25
2018-12-26T04:47:50.945Z,17.02
2018-12-26T04:50:24.571Z,16.93
2018-12-26T04:52:54.639Z,17.70
2018-12-26T04:55:22.320Z,17.62
2018-12-26T04:57:51.840Z,18.07
2018-12-26T05:00:19.372Z,17.73
2018-12-26T05:02:46.987Z,18.00
2018-12-26T05:05:14.832Z,19.32
2018-12-26T05:07:42.396Z,18.98
2018-12-26T05:10:16.397Z,19.60
2018-12-26T05:12:45.499Z,20.50
2018-12-26T05:15:15.452Z,24.70
2018-12-26T05:17:43.197Z,21.70
2018-12-26T05:20:11.092Z,24.43
2018-12-26T05:22:43.967Z,25.12
2018-12-26T05:25:11.768Z,26.77
2018-12-26T05:27:39.676Z,28.38
2018-12-26T05:30:08.697Z,24.85
2018-12-26T05:32:36.286Z,24.75
2018-12-26T05:35:04.126Z,25.68
2018-12-26T05:37:31.688Z,27.50
2018-12-26T05:40:00.438Z,28.70
2018-12-26T05:42:28.224Z,28.50
2018-12-26T05:44:55.884Z,28.35
2018-12-26T05:47:23.577Z,30.52
2018-12-26T05:49:52.287Z,28.90
2018-12-26T05:52:19.954Z,29.18
2018-12-26T05:54:47.641Z,28.80
2018-12-26T05:57:16.834Z,28.55
2018-12-26T05:59:44.424Z,28.00
2018-12-26T06:02:12.017Z,26.05
2018-12-26T06:04:39.653Z,27.02
2018-12-26T06:07:07.362Z,26.57
2018-12-26T06:09:36.921Z,27.02
2018-12-26T06:12:04.539Z,28.02
2018-12-26T06:14:32.246Z,28.38
2018-12-26T06:16:59.823Z,27.98
2018-12-26T06:19:27.460Z,28.00
2018-12-26T06:21:55.097Z,28.10
2018-12-26T06:24:22.716Z,30.02
2018-12-26T06:26:50.761Z,28.50
2018-12-26T06:29:18.353Z,28.07
2018-12-26T06:31:46.006Z,26.82
2018-12-26T06:34:13.991Z,27.90
2018-12-26T06:36:41.512Z,26.50
2018-12-26T06:39:09.191Z,28.80
2018-12-26T06:41:37.218Z,27.80
2018-12-26T06:44:04.803Z,28.40
2018-12-26T06:46:32.369Z,27.45
2018-12-26T06:49:00.484Z,28.35
2018-12-26T06:51:28.149Z,27.58
2018-12-26T06:53:55.756Z,26.17
2018-12-26T06:56:23.672Z,28.02
2018-12-26T06:58:51.292Z,25.02
2018-12-26T07:01:18.972Z,21.75
2018-12-26T07:03:46.815Z,25.27
2018-12-26T07:06:14.435Z,26.37
2018-12-26T07:08:42.083Z,24.00
2018-12-26T07:11:09.881Z,26.93
2018-12-26T07:13:37.613Z,25.40
2018-12-26T07:16:05.225Z,25.20
2018-12-26T07:18:36.404Z,26.12
2018-12-26T07:21:04.012Z,26.55
2018-12-26T07:23:31.709Z,25.65
2018-12-26T07:25:59.765Z,24.90
2018-12-26T07:28:27.610Z,25.45
2018-12-26T07:30:56.601Z,26.90
2018-12-26T07:33:24.427Z,27.20
2018-12-26T07:35:52.031Z,26.15
2018-12-26T07:38:19.629Z,26.27
2018-12-26T07:40:50.843Z,26.05
2018-12-26T07:43:18.432Z,24.82
2018-12-26T07:45:46.053Z,25.02
2018-12-26T07:48:14.101Z,24.72
2018-12-26T07:50:41.945Z,25.20
2018-12-26T07:53:13.657Z,24.52
2018-12-26T07:55:41.576Z,21.97
2018-12-26T07:58:17.428Z,22.70
2018-12-26T08:00:38.686Z,21.57
2018-12-26T08:03:07.662Z,22.13
2018-12-26T08:05:35.433Z,21.68
2018-12-26T08:08:02.976Z,21.37
2018-12-26T08:10:32.813Z,21.43
2018-12-26T08:13:00.425Z,21.13
2018-12-26T08:15:28.149Z,21.20
2018-12-26T08:17:55.982Z,21.13
2018-12-26T08:20:24.581Z,20.55
2018-12-26T08:22:52.255Z,21.63
2018-12-26T08:25:20.287Z,22.15
2018-12-26T08:27:47.965Z,20.57
2018-12-26T08:30:15.630Z,20.60
2018-12-26T08:32:43.813Z,19.62
2018-12-26T08:35:26.460Z,20.43
2018-12-26T08:38:00.764Z,20.43
2018-12-26T08:40:28.381Z,19.07
2018-12-26T08:42:55.877Z,19.87
2018-12-26T08:45:23.606Z,19.87
2018-12-26T08:47:51.288Z,18.50
2018-12-26T08:50:18.949Z,20.12
2018-12-26T08:52:46.675Z,18.42
2018-12-26T08:55:14.271Z,19.75
2018-12-26T08:57:41.915Z,19.03
2018-12-26T09:00:09.921Z,19.87
2018-12-26T09:02:37.663Z,21.10
2018-12-26T09:05:08.258Z,18.98
2018-12-26T09:07:36.597Z,18.32
2018-12-26T09:10:04.582Z,21.50
2018-12-26T09:12:32.521Z,21.25
2018-12-26T09:15:00.656Z,21.60
2018-12-26T09:17:28.732Z,20.77
2018-12-26T09:19:57.496Z,20.10
2018-12-26T09:22:28.116Z,20.12
2018-12-26T09:24:58.360Z,20.25
2018-12-26T09:27:25.994Z,20.60
2018-12-26T09:29:54.961Z,21.33
2018-12-26T09:32:24.180Z,20.23
2018-12-26T09:34:54.292Z,20.68
2018-12-26T09:37:23.545Z,18.73
2018-12-26T09:39:51.217Z,18.62
2018-12-26T09:42:21.375Z,20.45
2018-12-26T09:44:54.307Z,20.82
2018-12-26T09:47:20.333Z,19.83
2018-12-26T09:49:54.184Z,19.10
2018-12-26T09:52:24.124Z,20.00
2018-12-26T09:54:51.685Z,19.40
2018-12-26T09:57:19.812Z,18.37
2018-12-26T09:59:48.457Z,20.50
2018-12-26T10:02:19.101Z,17.87
2018-12-26T10:04:48.483Z,18.27
2018-12-26T10:07:16.092Z,18.87
2018-12-26T10:09:43.931Z,18.20
2018-12-26T10:12:11.649Z,18.27
2018-12-26T10:14:39.584Z,17.80
2018-12-26T10:17:07.266Z,17.57
2018-12-26T10:19:37.499Z,15.77
2018-12-26T10:22:06.776Z,17.37
2018-12-26T10:24:34.628Z,17.57
2018-12-26T10:27:06.199Z,17.77
2018-12-26T10:29:33.745Z,17.87
2018-12-26T10:32:01.334Z,16.00
2018-12-26T10:34:29.061Z,16.90
2018-12-26T10:36:56.861Z,17.67
2018-12-26T10:39:24.353Z,17.30
2018-12-26T10:41:52.061Z,16.70
2018-12-26T10:44:23.885Z,16.43
2018-12-26T10:46:51.566Z,16.93
2018-12-26T10:49:19.225Z,19.60
2018-12-26T10:51:46.849Z,17.00
2018-12-26T10:54:14.441Z,17.03
2018-12-26T10:56:48.987Z,17.50
2018-12-26T10:59:16.565Z,17.70
2018-12-26T11:01:45.704Z,17.20
2018-12-26T11:04:13.668Z,16.37
2018-12-26T11:06:47.369Z,15.47
2018-12-26T11:09:15.046Z,16.80
2018-12-26T11:12:30.592Z,17.07
2018-12-26T11:14:52.808Z,16.33
2018-12-26T11:17:20.534Z,17.40
2018-12-26T11:19:48.151Z,15.97
2018-12-26T11:22:23.449Z,18.20
2018-12-26T11:24:51.233Z,17.57
2018-12-26T11:27:18.793Z,17.83
2018-12-26T11:29:46.449Z,16.43
2018-12-26T11:32:18.803Z,17.47
2018-12-26T11:34:46.421Z,17.37
2018-12-26T11:37:14.009Z,16.00
2018-12-26T11:39:42.751Z,17.20
2018-12-26T11:42:10.295Z,16.03
2018-12-26T11:44:40.494Z,17.37
2018-12-26T11:47:13.874Z,16.73
2018-12-26T11:49:41.868Z,18.50
2018-12-26T11:52:15.368Z,17.87
2018-12-26T11:54:49.455Z,15.97
2018-12-26T11:57:17.266Z,17.67
2018-12-26T11:59:51.498Z,16.67
2018-12-26T12:02:22.009Z,16.07
2018-12-26T12:04:49.619Z,18.03
2018-12-26T12:07:17.457Z,17.33
2018-12-26T12:09:47.981Z,17.73
2018-12-26T12:12:18.663Z,16.20
2018-12-26T12:14:48.678Z,16.60
2018-12-26T12:17:16.390Z,19.07
2018-12-26T12:19:45.165Z,17.60
2018-12-26T12:22:14.439Z,18.33
2018-12-26T12:24:43.743Z,16.03
2018-12-26T12:27:11.387Z,20.03
2018-12-26T12:29:39.113Z,18.03
2018-12-26T12:32:11.149Z,18.40
2018-12-26T12:34:38.760Z,19.63
2018-12-26T12:37:09.523Z,20.00
2018-12-26T12:39:37.107Z,18.40
2018-12-26T12:42:04.801Z,19.17
2018-12-26T12:44:32.579Z,19.53
2018-12-26T12:47:00.282Z,20.73
2018-12-26T12:49:28.031Z,23.52
2018-12-26T12:51:56.308Z,21.20
2018-12-26T12:54:24.051Z,21.57
2018-12-26T12:56:51.656Z,19.73
2018-12-26T12:59:19.255Z,20.23
2018-12-26T13:01:47.000Z,17.70
2018-12-26T13:04:14.603Z,20.20
2018-12-26T13:06:42.567Z,17.03
2018-12-26T13:09:12.249Z,18.60
2018-12-26T13:11:39.780Z,18.40
2018-12-26T13:14:07.429Z,19.37
2018-12-26T13:16:35.052Z,18.57
2018-12-26T13:19:07.146Z,18.13
2018-12-26T13:21:35.049Z,18.40
2018-12-26T13:24:02.798Z,18.10
2018-12-26T13:26:30.622Z,17.73
2018-12-26T13:29:03.157Z,16.83
2018-12-26T13:31:33.326Z,19.33
2018-12-26T13:34:01.009Z,17.17
2018-12-26T13:36:28.707Z,17.67
2018-12-26T13:38:58.333Z,19.33
2018-12-26T13:41:28.741Z,17.77
2018-12-26T13:43:56.673Z,18.00
2018-12-26T13:46:24.499Z,17.67
2018-12-26T13:48:52.411Z,16.40
2018-12-26T13:51:20.312Z,18.03
2018-12-26T13:53:48.071Z,16.60
2018-12-26T13:56:15.630Z,18.27
2018-12-26T13:58:49.883Z,17.63
2018-12-26T14:01:17.729Z,17.53
2018-12-26T14:03:45.403Z,16.17
2018-12-26T14:06:16.118Z,16.03
2018-12-26T14:08:46.189Z,17.33
2018-12-26T14:11:13.826Z,16.97
2018-12-26T14:13:42.207Z,16.23
2018-12-26T14:16:09.799Z,17.40
2018-12-26T14:18:40.154Z,16.17
2018-12-26T14:21:09.703Z,20.30
2018-12-26T14:23:37.272Z,16.53
2018-12-26T14:26:11.026Z,17.57
2018-12-26T14:28:50.479Z,16.57
2018-12-26T14:31:21.260Z,17.40
2018-12-26T14:33:54.177Z,16.60
2018-12-26T14:36:26.220Z,16.53
2018-12-26T14:38:59.693Z,17.60
2018-12-26T14:41:27.285Z,16.33
2018-12-26T14:43:55.289Z,17.17
2018-12-26T14:46:23.207Z,17.70
2018-12-26T14:48:53.534Z,18.47
2018-12-26T14:51:26.405Z,18.07
2018-12-26T14:53:50.600Z,17.80
2018-12-26T14:56:18.244Z,18.57
2018-12-26T14:58:45.848Z,18.33
2018-12-26T15:01:13.561Z,18.83
2018-12-26T15:03:44.150Z,19.03
2018-12-26T15:06:15.460Z,18.37
2018-12-26T15:08:43.728Z,20.50
2018-12-26T15:11:11.698Z,19.37
2018-12-26T15:13:39.280Z,18.37
2018-12-26T15:16:12.237Z,18.47
2018-12-26T15:18:40.083Z,18.33
2018-12-26T15:21:07.897Z,18.47
2018-12-26T15:23:37.410Z,18.47
2018-12-26T15:26:09.974Z,18.40
2018-12-26T15:28:37.541Z,17.00
2018-12-26T15:31:05.294Z,18.23
2018-12-26T15:33:32.867Z,17.97
2018-12-26T15:36:02.325Z,16.20
2018-12-26T15:38:30.038Z,16.97
2018-12-26T15:40:58.852Z,17.03
2018-12-26T15:43:26.546Z,16.73
2018-12-26T15:45:54.259Z,17.50
2018-12-26T15:48:24.126Z,17.17
2018-12-26T15:50:51.787Z,16.70
2018-12-26T15:53:19.518Z,17.23
2018-12-26T15:55:47.211Z,18.00
2018-12-26T15:58:15.028Z,18.33
2018-12-26T16:00:42.698Z,16.63
2018-12-26T16:03:10.393Z,17.23
2018-12-26T16:05:38.189Z,17.97
2018-12-26T16:08:05.937Z,17.73
2018-12-26T16:10:33.512Z,19.63
2018-12-26T16:13:03.361Z,17.90
2018-12-26T16:15:31.252Z,18.90
2018-12-26T16:18:01.102Z,18.37
2018-12-26T16:20:28.724Z,17.70
2018-12-26T16:22:56.408Z,18.20
2018-12-26T16:25:24.848Z,19.77
2018-12-26T16:27:52.425Z,19.57
2018-12-26T16:30:22.165Z,19.03
2018-12-26T16:32:49.848Z,19.10
2018-12-26T16:36:35.653Z,18.17
2018-12-26T16:39:04.857Z,18.33
2018-12-26T16:41:32.468Z,19.53
2018-12-26T16:44:01.133Z,19.63
2018-12-26T16:46:28.746Z,18.90
2018-12-26T16:48:58.220Z,19.67
2018-12-26T16:51:25.937Z,19.77
2018-12-26T16:53:53.508Z,19.93
2018-12-26T16:56:21.306Z,19.60
2018-12-26T16:58:49.179Z,20.30
2018-12-26T17:01:18.706Z,20.83
2018-12-26T17:03:46.865Z,19.27
2018-12-26T17:06:17.458Z,21.30
2018-12-26T17:08:45.357Z,19.30
2018-12-26T17:11:13.069Z,19.47
2018-12-26T17:13:40.818Z,20.27
2018-12-26T17:16:08.715Z,19.27
2018-12-26T17:18:36.503Z,20.67
2018-12-26T17:21:04.088Z,20.80
2018-12-26T17:23:34.273Z,19.80
2018-12-26T17:26:02.383Z,23.30
2018-12-26T17:28:47.261Z,21.10
2018-12-26T17:31:15.306Z,20.57
2018-12-26T17:33:43.036Z,20.57
2018-12-26T17:36:10.641Z,19.20
2018-12-26T17:38:38.242Z,19.67
2018-12-26T17:41:08.334Z,21.10
2018-12-26T17:43:38.863Z,20.23
2018-12-26T17:46:07.683Z,21.10
2018-12-26T17:48:37.554Z,19.50
2018-12-26T17:51:17.459Z,20.20
2018-12-26T17:54:13.427Z,20.00
2018-12-26T17:57:00.240Z,20.17
2018-12-26T18:00:14.502Z,19.67
2018-12-26T18:02:45.041Z,19.93
2018-12-26T18:05:12.828Z,20.20
2018-12-26T18:07:40.586Z,20.03
2018-12-26T18:10:14.836Z,21.97
2018-12-26T18:12:42.542Z,19.63
2018-12-26T18:15:10.909Z,20.37
2018-12-26T18:17:39.086Z,20.43
2018-12-26T18:20:11.612Z,19.00
2018-12-26T18:22:39.262Z,19.97
2018-12-26T18:25:07.151Z,18.50
2018-12-26T18:27:44.391Z,18.93
2018-12-26T18:30:16.045Z,19.27
2018-12-26T18:33:14.296Z,19.17
2018-12-26T18:35:47.770Z,19.43
2018-12-26T18:38:15.467Z,17.93
2018-12-26T18:40:45.208Z,19.35
2018-12-26T18:43:15.771Z,19.97
2018-12-26T18:45:43.529Z,18.85
2018-12-26T18:48:22.645Z,18.70
2018-12-26T18:50:50.387Z,18.80
2018-12-26T18:53:17.996Z,17.87
2018-12-26T18:55:48.454Z,19.40
2018-12-26T18:58:17.915Z,19.37
2018-12-26T19:00:47.531Z,20.67
2018-12-26T19:03:19.554Z,18.97
2018-12-26T19:05:47.399Z,19.47
2018-12-26T19:08:20.929Z,18.50
2018-12-26T19:10:49.248Z,18.07
2018-12-26T19:13:19.257Z,18.30
2018-12-26T19:15:50.072Z,18.33
2018-12-26T19:18:22.078Z,18.53
2018-12-26T19:20:51.741Z,18.30
2018-12-26T19:23:22.308Z,19.57
2018-12-26T19:25:50.902Z,20.10
2018-12-26T19:28:19.711Z,18.70
2018-12-26T19:30:47.555Z,23.57
2018-12-26T19:33:24.392Z,35.50
2018-12-26T19:35:53.774Z,25.43
2018-12-26T19:38:21.513Z,23.13
2018-12-26T19:40:49.116Z,20.10
2018-12-26T19:43:16.854Z,20.07
2018-12-26T19:45:44.509Z,18.47
2018-12-26T19:48:14.443Z,21.57
2018-12-26T19:50:48.432Z,19.40
2018-12-26T19:53:41.680Z,18.27
2018-12-26T19:56:10.977Z,19.63
2018-12-26T19:58:43.879Z,18.80
2018-12-26T20:01:11.765Z,19.23
2018-12-26T20:03:46.386Z,18.97
2018-12-26T20:06:15.372Z,19.23
2018-12-26T20:08:44.321Z,18.93
2018-12-26T20:11:14.826Z,20.33
2018-12-26T20:13:42.461Z,21.93
2018-12-26T20:16:10.099Z,18.97
2018-12-26T20:18:38.208Z,18.83
2018-12-26T20:21:05.880Z,18.80
2018-12-26T20:23:33.801Z,19.47
2018-12-26T20:26:03.432Z,18.67
2018-12-26T20:28:32.816Z,18.07
2018-12-26T20:31:05.365Z,18.77
2018-12-26T20:33:33.444Z,17.83
2018-12-26T20:36:03.925Z,18.87
2018-12-26T20:38:34.758Z,17.63
2018-12-26T20:41:02.661Z,18.37
2018-12-26T20:43:30.451Z,18.83
2018-12-26T20:46:02.189Z,19.30
2018-12-26T20:48:29.809Z,19.10
2018-12-26T20:51:05.507Z,19.63
2018-12-26T20:53:33.226Z,18.50
2018-12-26T20:56:01.064Z,17.90
2018-12-26T20:58:28.944Z,17.07
2018-12-26T21:00:59.873Z,16.83
2018-12-26T21:03:28.024Z,16.37
2018-12-26T21:06:04.697Z,17.17
2018-12-26T21:08:32.592Z,17.43
2018-12-26T21:11:02.959Z,17.50
2018-12-26T21:13:32.691Z,17.30
2018-12-26T21:16:03.038Z,16.57
2018-12-26T21:18:31.057Z,16.93
2018-12-26T21:20:58.780Z,16.37
2018-12-26T21:23:31.533Z,17.33
2018-12-26T21:26:01.174Z,16.50
2018-12-26T21:28:29.246Z,17.00
2018-12-26T21:30:56.804Z,16.50
2018-12-26T21:33:28.943Z,16.60
2018-12-26T21:35:58.226Z,16.87
2018-12-26T21:38:26.568Z,16.17
2018-12-26T21:40:54.206Z,17.20
2018-12-26T21:43:25.640Z,16.07
2018-12-26T21:45:53.400Z,16.73
2018-12-26T21:48:20.981Z,17.70
2018-12-26T21:50:48.746Z,17.17
2018-12-26T21:53:16.362Z,17.40
2018-12-26T21:55:48.764Z,16.67
2018-12-26T21:58:19.392Z,24.83
2018-12-26T22:00:48.918Z,17.27
2018-12-26T22:03:16.530Z,18.37
2018-12-26T22:05:47.819Z,17.27
2018-12-26T22:08:21.536Z,16.50
2018-12-26T22:10:49.109Z,16.97
2018-12-26T22:13:18.989Z,15.77
2018-12-26T22:15:47.597Z,14.67
2018-12-26T22:18:17.103Z,16.30
2018-12-26T22:20:44.992Z,16.17
2018-12-26T22:23:13.770Z,15.67
2018-12-26T22:25:41.328Z,15.50
2018-12-26T22:28:09.205Z,15.43
2018-12-26T22:30:42.139Z,16.07
2018-12-26T22:33:09.743Z,15.97
2018-12-26T22:35:37.648Z,13.97
2018-12-26T22:38:05.551Z,14.10
2018-12-26T22:40:33.354Z,14.73
2018-12-26T22:43:01.279Z,16.00
2018-12-26T22:45:29.976Z,14.33
2018-12-26T22:48:01.189Z,15.83
2018-12-26T22:50:30.628Z,15.03
2018-12-26T22:53:03.113Z,15.00
2018-12-26T22:55:30.692Z,14.27
2018-12-26T22:57:58.716Z,14.13
2018-12-26T23:00:43.541Z,14.17
2018-12-26T23:03:11.382Z,13.60
2018-12-26T23:05:40.753Z,14.93
2018-12-26T23:08:08.322Z,13.33
2018-12-26T23:10:36.067Z,13.20
2018-12-26T23:13:03.655Z,13.77
2018-12-26T23:15:31.246Z,13.17
2018-12-26T23:18:01.459Z,13.57
2018-12-26T23:20:29.329Z,13.23
2018-12-26T23:22:56.962Z,13.80
2018-12-26T23:25:24.666Z,13.47
2018-12-26T23:27:52.672Z,13.50
2018-12-26T23:30:20.258Z,14.03
2018-12-26T23:32:51.129Z,14.40
2018-12-26T23:35:18.763Z,14.63
2018-12-26T23:37:46.622Z,15.33
2018-12-26T23:40:14.591Z,14.80
2018-12-26T23:42:46.274Z,15.00
2018-12-26T23:45:14.950Z,14.67
2018-12-26T23:47:43.031Z,15.33
2018-12-26T23:50:10.648Z,14.20
2018-12-26T23:52:38.443Z,14.80
2018-12-26T23:55:08.011Z,14.17
2018-12-26T23:57:40.101Z,14.73
